Time;durP1;ratioP1;P1;durP2;ratioP2;P2;SDS_P1;SDS_P2;PMS_P1;PMS_P2;Temp;Humidity;BMP_temperature;BMP_pressure;BME280_temperature;BME280_humidity;BME280_pressure;Samples;Min_cycle;Max_cycle;Signal;HPM_P1;HPM_P2
2021/07/22 00:01:31;;;;;;;17.07;15.90;;;24.40;92.20;;;;;;3585081;40;20478;-57
2021/07/22 00:04:00;;;;;;;18.23;16.73;;;24.40;92.20;;;;;;3593945;40;20466;-57
2021/07/22 00:06:27;;;;;;;19.13;17.63;;;24.40;92.20;;;;;;3584698;40;20482;-57
2021/07/22 00:08:55;;;;;;;17.47;16.00;;;24.40;92.20;;;;;;3601242;39;20459;-58
2021/07/22 00:11:23;;;;;;;18.57;16.87;;;24.40;92.10;;;;;;3613886;39;20456;-55
2021/07/22 00:13:50;;;;;;;19.13;17.63;;;24.40;92.20;;;;;;3614664;39;20466;-58
2021/07/22 00:16:17;;;;;;;18.83;17.30;;;24.40;92.20;;;;;;3614792;39;20474;-58
2021/07/22 00:18:45;;;;;;;18.50;16.73;;;24.40;92.20;;;;;;3614987;39;20467;-57
2021/07/22 00:21:13;;;;;;;18.07;16.70;;;24.40;92.20;;;;;;3614720;39;20876;-58
2021/07/22 00:23:40;;;;;;;17.90;16.60;;;24.40;92.20;;;;;;3614249;39;20517;-56
2021/07/22 00:26:08;;;;;;;16.90;15.70;;;24.40;92.50;;;;;;3613342;39;20458;-58
2021/07/22 00:28:35;;;;;;;18.03;16.40;;;24.40;92.20;;;;;;3613628;39;20474;-58
2021/07/22 00:31:02;;;;;;;19.43;15.80;;;24.40;92.30;;;;;;3604213;39;20463;-57
2021/07/22 00:33:30;;;;;;;18.80;16.83;;;24.40;92.30;;;;;;3614401;39;21079;-58
2021/07/22 00:35:58;;;;;;;17.67;15.93;;;24.40;92.30;;;;;;3605113;39;20463;-57
2021/07/22 00:38:25;;;;;;;17.97;16.57;;;24.40;92.30;;;;;;3613914;39;20443;-58
2021/07/22 00:40:52;;;;;;;17.50;16.10;;;24.40;92.30;;;;;;3614456;39;20532;-57
2021/07/22 00:43:21;;;;;;;17.50;16.10;;;24.40;92.20;;;;;;3614427;39;20842;-57
2021/07/22 00:45:48;;;;;;;19.20;17.30;;;24.40;92.20;;;;;;3614528;39;20447;-58
2021/07/22 00:48:16;;;;;;;17.57;16.13;;;24.40;92.20;;;;;;3614278;39;20867;-57
2021/07/22 00:50:43;;;;;;;19.37;15.83;;;24.40;92.20;;;;;;3614015;39;21140;-58
2021/07/22 00:53:11;;;;;;;17.50;16.00;;;24.40;92.10;;;;;;3596171;39;20877;-58
2021/07/22 00:55:38;;;;;;;17.53;16.03;;;24.40;92.10;;;;;;3614437;39;20447;-58
2021/07/22 00:58:06;;;;;;;17.67;16.20;;;24.40;92.30;;;;;;3605264;39;20713;-57
2021/07/22 01:00:35;;;;;;;16.93;15.40;;;24.40;92.00;;;;;;3614100;39;21157;-57
2021/07/22 01:03:02;;;;;;;17.13;15.80;;;24.40;91.90;;;;;;3614436;39;20436;-58
2021/07/22 01:05:30;;;;;;;17.37;16.07;;;24.40;91.90;;;;;;3614560;39;20580;-58
2021/07/22 01:07:59;;;;;;;17.17;15.87;;;24.40;91.90;;;;;;3605015;39;20475;-56
2021/07/22 01:10:27;;;;;;;16.83;15.60;;;24.40;91.80;;;;;;3584630;40;20869;-58
2021/07/22 01:12:55;;;;;;;15.73;14.43;;;24.40;91.80;;;;;;3594347;40;20461;-58
2021/07/22 01:15:23;;;;;;;15.63;14.60;;;24.40;91.90;;;;;;3593697;40;20947;-58
2021/07/22 01:17:52;;;;;;;16.50;15.40;;;24.40;91.80;;;;;;3593980;40;20456;-58
2021/07/22 01:20:23;;;;;;;17.93;16.10;;;24.40;91.80;;;;;;3593679;40;20547;-57
2021/07/22 01:22:53;;;;;;;15.47;14.37;;;24.40;91.80;;;;;;3584404;40;20706;-57
2021/07/22 01:25:21;;;;;;;16.20;15.10;;;24.40;91.70;;;;;;3584723;40;20449;-58
2021/07/22 01:27:53;;;;;;;15.13;14.13;;;24.40;91.70;;;;;;3593696;40;21131;-57
2021/07/22 01:30:21;;;;;;;15.67;14.57;;;24.40;91.70;;;;;;3584539;40;20464;-57
2021/07/22 01:32:49;;;;;;;15.67;14.37;;;24.40;91.90;;;;;;3594056;40;20508;-58
2021/07/22 01:35:16;;;;;;;16.53;15.33;;;24.40;91.60;;;;;;3593385;40;20476;-57
2021/07/22 01:37:49;;;;;;;17.50;16.10;;;24.40;91.50;;;;;;3584441;40;20550;-56
2021/07/22 01:40:17;;;;;;;17.43;16.23;;;24.40;91.50;;;;;;3593420;40;20697;-58
2021/07/22 01:42:46;;;;;;;18.07;16.60;;;24.40;91.50;;;;;;3594238;40;20449;-57
2021/07/22 01:45:13;;;;;;;16.83;15.53;;;24.40;91.50;;;;;;3593374;39;20442;-58
2021/07/22 01:47:44;;;;;;;17.30;16.10;;;24.40;91.50;;;;;;3584485;40;20471;-58
2021/07/22 01:50:13;;;;;;;16.20;15.10;;;24.40;91.40;;;;;;3594038;40;20558;-58
2021/07/22 01:52:42;;;;;;;16.70;15.70;;;24.40;91.40;;;;;;3593696;40;21127;-58
2021/07/22 01:55:12;;;;;;;18.13;16.53;;;24.40;91.30;;;;;;3584655;40;20457;-58
2021/07/22 01:57:48;;;;;;;17.00;15.80;;;24.40;91.40;;;;;;3593723;40;20476;-58
2021/07/22 02:00:19;;;;;;;16.43;15.27;;;24.40;91.30;;;;;;3593721;40;20466;-57
2021/07/22 02:02:46;;;;;;;16.97;15.87;;;24.40;91.30;;;;;;3593370;40;21044;-55
2021/07/22 02:05:22;;;;;;;16.80;15.60;;;24.40;91.30;;;;;;3584000;40;20480;-57
2021/07/22 02:07:50;;;;;;;16.87;15.67;;;24.40;91.30;;;;;;3593723;40;20536;-58
2021/07/22 02:10:20;;;;;;;17.27;15.97;;;24.40;91.20;;;;;;3603320;39;20471;-57
2021/07/22 02:12:48;;;;;;;16.83;15.70;;;24.40;91.20;;;;;;3596003;39;20475;-56
2021/07/22 02:15:20;;;;;;;16.70;15.40;;;24.40;91.20;;;;;;3613942;39;20466;-56
2021/07/22 02:17:47;;;;;;;17.33;16.00;;;24.40;91.20;;;;;;3605030;39;20495;-56
2021/07/22 02:20:17;;;;;;;18.70;16.73;;;24.40;91.20;;;;;;3604121;39;20507;-57
2021/07/22 02:22:46;;;;;;;18.20;16.80;;;24.40;91.60;;;;;;3613874;39;20470;-57
2021/07/22 02:25:41;;;;;;;17.50;15.97;;;24.40;91.20;;;;;;3606084;39;20491;-56
2021/07/22 02:28:09;;;;;;;16.80;15.50;;;24.40;91.10;;;;;;3604016;39;20528;-58
2021/07/22 02:30:36;;;;;;;16.40;15.10;;;24.40;91.10;;;;;;3613326;39;20458;-57
2021/07/22 02:33:04;;;;;;;17.27;16.00;;;24.40;91.10;;;;;;3603860;39;20488;-57
2021/07/22 02:35:31;;;;;;;17.67;16.00;;;24.40;91.10;;;;;;3602866;39;20474;-59
2021/07/22 02:38:19;;;;;;;17.23;16.03;;;24.40;91.10;;;;;;3613134;39;20463;-58
2021/07/22 02:40:48;;;;;;;19.47;17.90;;;24.40;91.00;;;;;;3603418;39;20567;-58
2021/07/22 02:43:17;;;;;;;18.03;16.53;;;24.40;91.00;;;;;;3603667;39;20439;-57
2021/07/22 02:45:45;;;;;;;16.17;15.10;;;24.40;91.00;;;;;;3603868;39;20895;-57
2021/07/22 02:48:15;;;;;;;17.30;16.10;;;24.40;91.00;;;;;;3603425;39;20454;-58
2021/07/22 02:50:42;;;;;;;18.07;16.67;;;24.40;90.90;;;;;;3613146;39;20470;-55
2021/07/22 02:53:10;;;;;;;16.67;15.50;;;24.40;90.90;;;;;;3613442;39;20459;-57
2021/07/22 02:55:55;;;;;;;17.40;15.77;;;24.40;90.80;;;;;;3604226;39;20447;-57
2021/07/22 02:58:23;;;;;;;17.13;16.03;;;24.40;90.80;;;;;;3604405;39;20452;-57
2021/07/22 03:00:51;;;;;;;16.97;15.67;;;24.40;90.80;;;;;;3615245;39;20454;-58
2021/07/22 03:03:19;;;;;;;17.47;16.27;;;24.40;90.80;;;;;;3614386;39;20714;-57
2021/07/22 03:05:47;;;;;;;18.40;17.00;;;24.40;90.80;;;;;;3605723;39;20521;-55
2021/07/22 03:08:14;;;;;;;18.13;16.67;;;24.40;90.80;;;;;;3604110;39;20487;-58
2021/07/22 03:10:42;;;;;;;17.07;15.90;;;24.40;90.80;;;;;;3593597;40;20460;-58
2021/07/22 03:13:11;;;;;;;17.87;16.60;;;24.40;90.70;;;;;;3594509;40;20433;-56
2021/07/22 03:15:40;;;;;;;17.40;16.10;;;24.40;90.70;;;;;;3593176;40;20510;-58
2021/07/22 03:18:21;;;;;;;17.00;15.70;;;24.40;90.70;;;;;;3594340;40;20526;-56
2021/07/22 03:20:49;;;;;;;17.50;16.30;;;24.40;90.60;;;;;;3595428;39;20459;-58
2021/07/22 03:23:16;;;;;;;17.57;16.37;;;24.40;90.60;;;;;;3594522;40;20464;-58
2021/07/22 03:25:51;;;;;;;18.20;16.90;;;24.40;90.60;;;;;;3593870;40;20983;-57
2021/07/22 03:28:24;;;;;;;17.50;16.30;;;24.40;90.60;;;;;;3594131;39;20453;-58
2021/07/22 03:30:56;;;;;;;16.90;15.80;;;24.40;90.60;;;;;;3592838;40;20469;-57
2021/07/22 03:33:56;;;;;;;16.90;15.50;;;24.40;90.50;;;;;;3581942;40;20707;-58
2021/07/22 03:36:26;;;;;;;17.00;15.90;;;24.40;90.50;;;;;;3592805;40;20688;-58
2021/07/22 03:39:06;;;;;;;17.77;16.40;;;24.40;90.50;;;;;;3593042;40;20473;-58
2021/07/22 03:41:33;;;;;;;17.60;16.30;;;24.40;90.50;;;;;;3593937;40;20465;-58
2021/07/22 03:44:18;;;;;;;18.50;17.20;;;24.40;90.50;;;;;;3592136;40;20483;-58
2021/07/22 03:46:45;;;;;;;17.83;16.57;;;24.40;90.50;;;;;;3592677;40;20462;-58
2021/07/22 03:49:14;;;;;;;17.27;15.93;;;24.30;90.50;;;;;;3593489;39;20473;-58
2021/07/22 03:51:42;;;;;;;17.07;15.90;;;24.40;90.60;;;;;;3593259;40;20451;-57
2021/07/22 03:54:10;;;;;;;17.00;15.80;;;24.40;90.60;;;;;;3593469;40;21119;-57
2021/07/22 03:56:38;;;;;;;17.73;16.30;;;24.40;90.50;;;;;;3594217;39;20455;-57
2021/07/22 03:59:28;;;;;;;16.53;15.30;;;24.40;90.50;;;;;;3593742;39;21083;-58
2021/07/22 04:01:58;;;;;;;17.53;16.37;;;24.40;90.50;;;;;;3594068;39;20433;-57
2021/07/22 04:04:30;;;;;;;17.30;16.10;;;24.40;90.40;;;;;;3591790;40;20828;-57
2021/07/22 04:07:00;;;;;;;17.57;16.37;;;24.40;90.40;;;;;;3592827;40;20450;-58
2021/07/22 04:09:45;;;;;;;18.50;17.20;;;24.40;90.40;;;;;;3600092;39;20519;-58
2021/07/22 04:12:32;;;;;;;16.97;15.87;;;24.40;90.40;;;;;;3612396;39;20467;-58
2021/07/22 04:15:08;;;;;;;17.70;16.40;;;24.40;90.40;;;;;;3612555;39;20534;-58
2021/07/22 04:18:01;;;;;;;18.23;16.93;;;24.30;90.30;;;;;;3598272;39;20470;-57
2021/07/22 04:20:40;;;;;;;18.10;16.97;;;24.40;90.30;;;;;;3612876;39;20463;-57
2021/07/22 04:23:23;;;;;;;18.03;16.83;;;24.30;90.30;;;;;;3611286;39;20647;-57
2021/07/22 04:26:15;;;;;;;16.70;15.60;;;24.30;90.30;;;;;;3611836;39;20896;-58
2021/07/22 04:28:58;;;;;;;17.93;16.73;;;24.30;90.30;;;;;;3602134;39;20519;-56
2021/07/22 04:31:29;;;;;;;17.30;16.30;;;24.30;90.30;;;;;;3612365;39;20865;-58
2021/07/22 04:34:25;;;;;;;17.53;16.43;;;24.30;90.30;;;;;;3604840;39;20490;-57
2021/07/22 04:37:28;;;;;;;17.67;16.53;;;24.30;90.20;;;;;;3576358;40;20552;-57
2021/07/22 04:40:13;;;;;;;17.73;16.67;;;24.30;90.30;;;;;;3607545;39;20691;-57
2021/07/22 04:43:09;;;;;;;17.77;16.57;;;24.30;90.10;;;;;;3601371;39;20452;-57
2021/07/22 04:46:03;;;;;;;18.47;17.37;;;24.30;90.10;;;;;;3597643;39;20463;-57
2021/07/22 04:48:37;;;;;;;17.80;16.50;;;24.30;90.10;;;;;;3610938;39;20440;-56
2021/07/22 04:51:19;;;;;;;17.47;16.37;;;24.30;90.20;;;;;;3593295;39;20446;-58
2021/07/22 04:53:55;;;;;;;17.10;16.00;;;24.30;90.10;;;;;;3606481;39;20441;-57
2021/07/22 04:56:24;;;;;;;17.70;16.57;;;24.40;90.20;;;;;;3599229;39;20475;-56
2021/07/22 04:58:51;;;;;;;17.77;16.57;;;24.30;90.20;;;;;;3610885;39;20471;-57
2021/07/22 05:01:26;;;;;;;18.87;17.47;;;24.40;90.20;;;;;;3606817;39;20455;-58
2021/07/22 05:03:54;;;;;;;18.73;17.43;;;24.40;90.20;;;;;;3610932;39;20443;-57
2021/07/22 05:06:28;;;;;;;19.57;17.77;;;24.40;90.20;;;;;;3586877;39;20472;-60
2021/07/22 05:09:09;;;;;;;20.83;18.90;;;24.40;90.20;;;;;;3599135;39;20818;-60
2021/07/22 05:11:48;;;;;;;19.37;18.07;;;24.40;90.20;;;;;;3602962;39;21040;-60
2021/07/22 05:14:36;;;;;;;20.47;18.97;;;24.40;90.20;;;;;;3603930;39;20444;-59
2021/07/22 05:17:29;;;;;;;19.90;18.50;;;24.40;90.30;;;;;;3612330;39;20458;-60
2021/07/22 05:20:23;;;;;;;19.80;18.13;;;24.40;90.20;;;;;;3601847;39;20471;-59
2021/07/22 05:23:14;;;;;;;18.97;17.67;;;24.40;90.20;;;;;;3605556;39;20487;-60
2021/07/22 05:25:47;;;;;;;21.57;19.87;;;24.40;90.20;;;;;;3598274;39;20451;-60
2021/07/22 05:28:29;;;;;;;19.77;18.10;;;24.40;90.10;;;;;;3593656;39;21149;-60
2021/07/22 05:31:10;;;;;;;18.80;17.60;;;24.40;90.20;;;;;;3610113;39;20483;-59
2021/07/22 05:34:13;;;;;;;19.97;18.50;;;24.40;90.20;;;;;;3604342;39;20832;-60
2021/07/22 05:36:47;;;;;;;19.50;17.70;;;24.40;90.20;;;;;;3610750;39;20444;-59
2021/07/22 05:39:22;;;;;;;20.43;18.67;;;24.40;90.20;;;;;;3610613;39;20497;-59
2021/07/22 05:41:49;;;;;;;19.20;17.70;;;24.40;90.30;;;;;;3611272;39;21023;-60
2021/07/22 05:44:16;;;;;;;18.80;17.20;;;24.40;90.30;;;;;;3611504;39;21219;-60
2021/07/22 05:46:43;;;;;;;18.73;17.20;;;24.40;90.30;;;;;;3610296;39;20464;-59
2021/07/22 05:49:11;;;;;;;18.13;16.70;;;24.40;90.30;;;;;;3608316;39;20514;-61
2021/07/22 05:51:39;;;;;;;18.57;16.73;;;24.40;90.20;;;;;;3608872;39;20451;-60
2021/07/22 05:54:09;;;;;;;18.23;17.13;;;24.00;90.10;;;;;;3610221;39;20448;-60
2021/07/22 05:56:37;;;;;;;18.27;17.00;;;23.50;90.90;;;;;;3609705;39;20455;-61
2021/07/22 05:59:04;;;;;;;19.30;17.80;;;23.00;91.30;;;;;;3608922;39;20506;-60
2021/07/22 06:01:31;;;;;;;17.80;16.60;;;22.70;91.70;;;;;;3607770;39;20622;-59
2021/07/22 06:04:01;;;;;;;18.60;17.43;;;22.60;91.90;;;;;;3601097;39;20723;-59
2021/07/22 06:06:31;;;;;;;18.30;17.00;;;22.50;92.30;;;;;;3601418;39;20479;-60
2021/07/22 06:09:01;;;;;;;18.70;17.43;;;22.40;92.70;;;;;;3592687;39;20471;-60
2021/07/22 06:11:31;;;;;;;18.50;17.30;;;22.30;92.60;;;;;;3589460;39;20460;-60
2021/07/22 06:13:58;;;;;;;17.30;16.10;;;22.30;92.70;;;;;;3594644;39;20476;-60
2021/07/22 06:16:27;;;;;;;18.87;17.77;;;22.40;92.60;;;;;;3591480;39;20479;-59
2021/07/22 06:18:55;;;;;;;18.90;17.00;;;22.40;92.70;;;;;;3585584;39;20508;-59
2021/07/22 06:21:23;;;;;;;18.93;17.20;;;22.40;92.70;;;;;;3590258;39;20893;-60
2021/07/22 06:23:51;;;;;;;19.00;17.50;;;22.50;92.70;;;;;;3591426;39;20783;-58
2021/07/22 06:26:19;;;;;;;18.80;17.60;;;22.60;92.70;;;;;;3594499;39;20448;-59
2021/07/22 06:28:48;;;;;;;19.00;17.80;;;22.60;92.80;;;;;;3588735;39;20709;-60
2021/07/22 06:31:15;;;;;;;19.50;18.00;;;22.60;92.80;;;;;;3578856;39;20481;-61
2021/07/22 06:33:44;;;;;;;17.87;16.63;;;22.60;93.00;;;;;;3594635;39;20472;-61
2021/07/22 06:36:12;;;;;;;17.77;16.27;;;22.70;92.80;;;;;;3592064;39;20473;-61
2021/07/22 06:38:39;;;;;;;19.30;17.83;;;22.80;92.60;;;;;;3590577;39;20461;-61
2021/07/22 06:41:08;;;;;;;17.70;16.50;;;23.00;92.40;;;;;;3590929;39;20472;-61
2021/07/22 06:43:35;;;;;;;16.93;15.73;;;23.10;92.00;;;;;;3590768;39;20465;-61
2021/07/22 06:46:11;;;;;;;18.63;17.37;;;23.10;91.90;;;;;;3590427;39;20464;-61
2021/07/22 06:48:39;;;;;;;16.97;15.77;;;23.10;91.90;;;;;;3599901;39;20921;-61
2021/07/22 06:51:07;;;;;;;17.67;16.27;;;23.10;91.90;;;;;;3600951;39;20480;-61
2021/07/22 06:53:35;;;;;;;17.47;16.27;;;23.20;92.00;;;;;;3598477;39;20512;-61
2021/07/22 06:56:04;;;;;;;19.10;17.70;;;23.20;91.90;;;;;;3588939;39;20497;-60
2021/07/22 06:58:31;;;;;;;17.53;16.00;;;23.20;91.90;;;;;;3586423;40;20465;-61
2021/07/22 07:00:59;;;;;;;17.43;16.33;;;23.20;92.00;;;;;;3584460;40;21374;-61
2021/07/22 07:03:34;;;;;;;17.90;16.57;;;23.20;92.10;;;;;;3587606;40;20462;-61
2021/07/22 07:06:04;;;;;;;17.40;16.07;;;23.30;92.40;;;;;;3581787;40;20489;-60
2021/07/22 07:08:31;;;;;;;17.67;16.53;;;23.30;92.30;;;;;;3584454;40;20563;-60
2021/07/22 07:11:01;;;;;;;17.50;16.50;;;23.40;92.00;;;;;;3572267;40;20492;-60
2021/07/22 07:13:28;;;;;;;17.33;16.13;;;23.40;91.90;;;;;;3582681;40;20472;-58
2021/07/22 07:15:59;;;;;;;17.53;16.43;;;23.50;92.00;;;;;;3576704;40;20536;-60
2021/07/22 07:18:34;;;;;;;17.50;16.50;;;23.60;92.00;;;;;;3577083;40;20466;-61
2021/07/22 07:21:04;;;;;;;17.13;16.13;;;23.60;92.00;;;;;;3581892;40;20478;-61
2021/07/22 07:23:32;;;;;;;18.07;16.97;;;23.60;92.20;;;;;;3583610;40;20524;-60
2021/07/22 07:25:59;;;;;;;18.00;16.93;;;23.60;92.30;;;;;;3584660;40;20526;-61
2021/07/22 07:28:26;;;;;;;18.83;17.60;;;23.60;92.30;;;;;;3590421;40;20480;-60
2021/07/22 07:30:54;;;;;;;17.90;16.80;;;23.60;92.30;;;;;;3589888;40;20586;-61
2021/07/22 07:33:30;;;;;;;18.60;17.40;;;23.80;92.30;;;;;;3592354;40;20473;-61
2021/07/22 07:35:57;;;;;;;16.43;15.43;;;23.80;92.30;;;;;;3591250;40;20449;-60
2021/07/22 07:38:26;;;;;;;18.10;16.70;;;23.80;92.20;;;;;;3582290;40;20473;-59
2021/07/22 07:40:53;;;;;;;17.87;16.50;;;23.80;92.10;;;;;;3570853;40;20962;-60
2021/07/22 07:43:22;;;;;;;16.93;15.83;;;23.90;92.30;;;;;;3580422;40;20470;-60
2021/07/22 07:45:49;;;;;;;18.03;16.93;;;23.90;92.40;;;;;;3569979;40;20512;-61
2021/07/22 07:48:16;;;;;;;18.83;17.50;;;23.90;92.20;;;;;;3583559;40;20485;-59
2021/07/22 07:50:45;;;;;;;19.47;18.07;;;24.00;92.10;;;;;;3583284;40;20898;-60
2021/07/22 07:53:14;;;;;;;18.03;16.90;;;24.00;92.10;;;;;;3580977;40;20478;-61
2021/07/22 07:55:44;;;;;;;18.50;17.33;;;24.00;92.10;;;;;;3585025;40;20485;-60
2021/07/22 07:58:13;;;;;;;18.80;17.57;;;24.10;92.00;;;;;;3581364;40;20484;-60
2021/07/22 08:00:40;;;;;;;18.00;16.80;;;24.10;91.90;;;;;;3590625;40;20478;-61
2021/07/22 08:03:16;;;;;;;18.93;17.57;;;24.10;91.90;;;;;;3579800;40;20975;-58
2021/07/22 08:05:44;;;;;;;18.23;17.00;;;24.20;92.00;;;;;;3568428;40;20464;-58
2021/07/22 08:08:11;;;;;;;18.67;17.47;;;24.20;91.90;;;;;;3567564;40;20459;-59
2021/07/22 08:10:41;;;;;;;20.23;18.77;;;24.20;91.90;;;;;;3569882;40;20907;-59
2021/07/22 08:13:12;;;;;;;19.40;18.10;;;24.20;91.90;;;;;;3569857;40;20462;-58
2021/07/22 08:15:43;;;;;;;19.40;17.77;;;24.20;91.90;;;;;;3570661;40;20499;-59
2021/07/22 08:18:11;;;;;;;18.53;17.43;;;24.20;92.00;;;;;;3568941;40;20478;-58
2021/07/22 08:20:39;;;;;;;18.87;17.27;;;24.20;92.00;;;;;;3574403;40;20454;-61
2021/07/22 08:23:07;;;;;;;18.83;17.63;;;24.20;92.00;;;;;;3571885;40;21272;-60
2021/07/22 08:25:36;;;;;;;18.80;17.67;;;24.20;92.10;;;;;;3570646;40;20540;-60
2021/07/22 08:28:05;;;;;;;19.83;18.43;;;24.30;92.20;;;;;;3575303;40;20489;-60
2021/07/22 08:30:34;;;;;;;18.13;16.90;;;24.30;92.20;;;;;;3568052;40;20662;-62
2021/07/22 08:33:04;;;;;;;19.07;17.33;;;24.30;92.20;;;;;;3585819;40;20678;-61
2021/07/22 08:35:31;;;;;;;18.83;17.63;;;24.30;92.20;;;;;;3586120;40;20875;-61
2021/07/22 08:37:59;;;;;;;18.23;16.70;;;24.30;92.20;;;;;;3578192;40;20487;-62
2021/07/22 08:40:28;;;;;;;19.47;18.17;;;24.30;92.50;;;;;;3580936;40;20477;-61
2021/07/22 08:43:02;;;;;;;18.50;17.30;;;24.30;92.10;;;;;;3575663;40;20475;-61
2021/07/22 08:45:31;;;;;;;18.50;17.30;;;24.40;92.20;;;;;;3570981;40;20468;-61
2021/07/22 08:47:59;;;;;;;18.23;17.03;;;24.40;92.20;;;;;;3570515;40;20470;-61
2021/07/22 08:50:28;;;;;;;19.27;17.87;;;24.40;92.20;;;;;;3570481;40;20474;-61
2021/07/22 08:52:56;;;;;;;19.40;17.70;;;24.40;92.10;;;;;;3567186;40;20450;-61
2021/07/22 08:55:25;;;;;;;19.70;18.40;;;24.40;92.10;;;;;;3577489;39;20473;-62
2021/07/22 08:57:55;;;;;;;18.53;17.33;;;24.40;92.10;;;;;;3571433;40;20484;-62
2021/07/22 09:00:24;;;;;;;19.50;18.30;;;24.40;92.10;;;;;;3581168;40;20487;-62
2021/07/22 09:02:55;;;;;;;19.73;18.43;;;24.40;92.20;;;;;;3578946;40;20520;-62
2021/07/22 09:05:29;;;;;;;18.37;17.07;;;24.40;92.20;;;;;;3573771;40;20485;-64
2021/07/22 09:07:56;;;;;;;17.27;16.17;;;24.40;92.10;;;;;;3569395;40;20804;-61
2021/07/22 09:10:24;;;;;;;17.77;16.37;;;24.40;91.90;;;;;;3568784;40;21159;-61
2021/07/22 09:12:53;;;;;;;17.00;15.83;;;24.50;91.70;;;;;;3568748;40;20484;-61
2021/07/22 09:15:28;;;;;;;16.80;15.90;;;24.40;91.60;;;;;;3574180;40;20509;-62
2021/07/22 09:17:59;;;;;;;17.00;15.90;;;24.40;91.50;;;;;;3577226;40;20468;-63
2021/07/22 09:20:30;;;;;;;16.77;15.77;;;24.40;91.40;;;;;;3572215;40;20897;-62
2021/07/22 09:23:01;;;;;;;18.33;16.57;;;24.40;91.40;;;;;;3579406;40;20484;-62
2021/07/22 09:25:41;;;;;;;18.73;17.10;;;24.50;91.40;;;;;;3584637;40;20477;-61
2021/07/22 09:28:16;;;;;;;17.60;16.50;;;24.40;91.30;;;;;;3579669;40;20485;-62
2021/07/22 09:30:59;;;;;;;18.03;16.83;;;24.40;91.20;;;;;;3571227;40;20957;-61
2021/07/22 09:33:39;;;;;;;17.07;15.70;;;24.40;91.00;;;;;;3573139;40;20719;-64
2021/07/22 09:36:30;;;;;;;19.87;17.70;;;24.50;90.90;;;;;;3579668;40;20571;-63
2021/07/22 09:39:18;;;;;;;17.63;16.53;;;24.50;90.80;;;;;;3563488;40;20446;-63
2021/07/22 09:41:55;;;;;;;17.23;16.10;;;24.50;90.90;;;;;;3566877;40;20474;-63
2021/07/22 09:44:36;;;;;;;19.07;17.77;;;24.50;90.80;;;;;;3559869;40;20940;-61
2021/07/22 09:47:05;;;;;;;18.50;17.20;;;24.40;90.80;;;;;;3546679;40;20487;-63
2021/07/22 09:49:37;;;;;;;17.20;16.10;;;24.40;90.80;;;;;;3546073;40;20468;-63
2021/07/22 09:52:11;;;;;;;16.70;15.70;;;24.40;90.60;;;;;;3548177;40;20769;-63
2021/07/22 09:54:39;;;;;;;17.67;16.47;;;24.50;90.50;;;;;;3549928;40;20472;-63
2021/07/22 09:57:17;;;;;;;17.77;16.40;;;24.50;90.50;;;;;;3556029;40;20466;-63
2021/07/22 09:59:47;;;;;;;18.70;17.30;;;24.50;90.60;;;;;;3559651;40;20467;-63
2021/07/22 10:02:19;;;;;;;17.70;16.40;;;24.50;90.50;;;;;;3545226;40;20507;-63
2021/07/22 10:04:52;;;;;;;18.27;16.97;;;24.50;90.40;;;;;;3558017;40;21156;-63
2021/07/22 10:07:22;;;;;;;17.27;16.17;;;24.50;90.50;;;;;;3554100;40;20494;-63
2021/07/22 10:09:52;;;;;;;16.60;15.60;;;24.50;90.50;;;;;;3550433;40;20488;-61
2021/07/22 10:12:21;;;;;;;18.40;17.17;;;24.50;90.40;;;;;;3545825;40;20757;-61
2021/07/22 10:14:53;;;;;;;18.77;17.33;;;24.50;90.40;;;;;;3545109;40;20476;-62
2021/07/22 10:17:25;;;;;;;17.50;16.40;;;24.50;90.30;;;;;;3545804;40;20468;-62
2021/07/22 10:19:53;;;;;;;19.50;18.30;;;24.50;90.20;;;;;;3547369;40;20482;-61
2021/07/22 10:22:23;;;;;;;18.77;17.40;;;24.50;90.20;;;;;;3556105;40;20478;-61
2021/07/22 10:24:52;;;;;;;18.60;17.20;;;24.50;90.20;;;;;;3551856;40;20454;-61
2021/07/22 10:27:20;;;;;;;18.30;17.20;;;24.50;90.20;;;;;;3553990;40;20823;-60
2021/07/22 10:29:47;;;;;;;18.90;17.80;;;24.50;90.30;;;;;;3551510;40;20480;-60
2021/07/22 10:32:18;;;;;;;17.90;16.70;;;24.50;90.30;;;;;;3544792;40;20472;-61
2021/07/22 10:34:46;;;;;;;18.57;17.03;;;24.50;90.40;;;;;;3546235;40;20467;-61
2021/07/22 10:37:18;;;;;;;16.90;15.80;;;24.50;90.40;;;;;;3545169;40;20490;-61
2021/07/22 10:40:07;;;;;;;16.33;15.37;;;24.50;90.40;;;;;;3549426;40;20585;-60
2021/07/22 10:42:46;;;;;;;17.97;16.83;;;24.50;90.40;;;;;;3549672;40;20472;-61
2021/07/22 10:45:27;;;;;;;17.23;15.93;;;24.60;90.30;;;;;;3565452;40;20558;-61
2021/07/22 10:48:02;;;;;;;18.27;16.97;;;24.50;90.30;;;;;;3575526;40;21039;-61
2021/07/22 10:51:04;;;;;;;18.10;16.47;;;24.60;90.40;;;;;;3575585;40;20508;-61
2021/07/22 10:53:53;;;;;;;18.20;17.00;;;24.50;90.40;;;;;;3568018;40;20606;-61
2021/07/22 10:56:57;;;;;;;17.93;16.73;;;24.50;90.30;;;;;;3569803;40;20516;-61
2021/07/22 10:59:56;;;;;;;19.33;17.80;;;24.60;90.00;;;;;;3574691;40;20470;-63
2021/07/22 11:02:44;;;;;;;18.90;17.70;;;24.60;89.90;;;;;;3587789;40;20713;-63
2021/07/22 11:05:32;;;;;;;18.40;17.00;;;24.60;90.00;;;;;;3589855;40;20461;-63
2021/07/22 11:08:20;;;;;;;19.60;18.30;;;24.60;90.00;;;;;;3592147;40;20571;-63
2021/07/22 11:10:52;;;;;;;19.17;17.87;;;24.60;90.10;;;;;;3582778;40;20474;-63
2021/07/22 11:13:58;;;;;;;20.47;19.17;;;24.60;90.10;;;;;;3582299;40;20874;-63
2021/07/22 11:16:29;;;;;;;21.23;19.40;;;24.50;90.20;;;;;;3586060;40;20469;-63
2021/07/22 11:18:58;;;;;;;21.30;19.80;;;24.60;90.20;;;;;;3589484;39;20536;-63
2021/07/22 11:21:31;;;;;;;21.10;19.70;;;24.50;90.30;;;;;;3583716;40;20482;-63
2021/07/22 11:24:02;;;;;;;19.47;18.17;;;24.50;90.30;;;;;;3566195;40;20486;-63
2021/07/22 11:26:31;;;;;;;21.50;20.07;;;24.50;90.40;;;;;;3578408;40;20481;-63
2021/07/22 11:29:03;;;;;;;21.33;19.83;;;24.50;90.40;;;;;;3580947;40;20470;-63
2021/07/22 11:31:39;;;;;;;21.90;20.30;;;24.50;90.40;;;;;;3583877;40;20516;-63
2021/07/22 11:34:07;;;;;;;19.87;18.33;;;24.50;90.50;;;;;;3581089;40;20639;-63
2021/07/22 11:36:34;;;;;;;21.37;19.97;;;24.50;90.50;;;;;;3585637;40;20461;-63
2021/07/22 11:39:04;;;;;;;20.30;18.90;;;24.50;90.60;;;;;;3592768;40;20895;-63
2021/07/22 11:41:31;;;;;;;20.57;19.17;;;24.50;90.60;;;;;;3583302;40;20469;-63
2021/07/22 11:44:00;;;;;;;21.30;19.80;;;24.50;90.60;;;;;;3568845;40;20545;-63
2021/07/22 11:46:42;;;;;;;20.80;19.30;;;24.50;90.70;;;;;;3574948;40;20565;-63
2021/07/22 11:49:12;;;;;;;21.70;20.20;;;24.50;90.70;;;;;;3572980;40;21320;-63
2021/07/22 11:51:42;;;;;;;22.13;20.63;;;24.50;90.70;;;;;;3574303;40;20490;-63
2021/07/22 11:54:11;;;;;;;21.90;20.20;;;24.50;90.80;;;;;;3568803;40;20474;-63
2021/07/22 11:56:41;;;;;;;22.67;20.97;;;24.50;90.80;;;;;;3569751;40;20447;-63
2021/07/22 11:59:10;;;;;;;23.17;21.33;;;24.50;90.80;;;;;;3572925;40;20537;-63
2021/07/22 12:01:50;;;;;;;22.10;20.60;;;24.50;90.80;;;;;;3574359;40;20478;-63
2021/07/22 12:04:28;;;;;;;22.43;20.77;;;24.50;90.80;;;;;;3575844;40;20460;-63
2021/07/22 12:06:57;;;;;;;22.77;21.13;;;24.50;90.80;;;;;;3579457;40;20457;-63
2021/07/22 12:09:25;;;;;;;24.63;22.83;;;24.50;90.80;;;;;;3593863;39;20485;-63
2021/07/22 12:11:55;;;;;;;22.43;20.83;;;24.50;90.90;;;;;;3592533;40;20491;-63
2021/07/22 12:14:29;;;;;;;22.63;20.97;;;24.50;90.90;;;;;;3592747;40;20935;-63
2021/07/22 12:17:01;;;;;;;25.50;23.53;;;24.50;90.90;;;;;;3588946;39;20490;-63
2021/07/22 12:19:31;;;;;;;23.37;21.33;;;24.50;90.90;;;;;;3602827;39;20448;-63
2021/07/22 12:22:17;;;;;;;23.50;21.70;;;24.50;90.90;;;;;;3597966;39;20844;-63
2021/07/22 12:24:52;;;;;;;24.20;22.37;;;24.50;90.90;;;;;;3580997;40;20532;-63
2021/07/22 12:27:34;;;;;;;21.23;19.83;;;24.50;90.90;;;;;;3589778;39;20967;-63
2021/07/22 12:30:04;;;;;;;23.53;21.70;;;24.50;90.90;;;;;;3592622;39;20512;-63
2021/07/22 12:32:35;;;;;;;23.87;22.17;;;24.50;90.90;;;;;;3597412;39;20517;-62
2021/07/22 12:35:03;;;;;;;22.53;20.83;;;24.50;90.90;;;;;;3592103;39;20464;-62
2021/07/22 12:37:52;;;;;;;23.37;21.67;;;24.60;91.00;;;;;;3584326;39;20482;-62
2021/07/22 12:40:31;;;;;;;21.07;19.47;;;24.60;91.00;;;;;;3587821;39;20448;-62
2021/07/22 12:42:59;;;;;;;20.23;18.93;;;24.60;90.90;;;;;;3591166;39;20452;-63
2021/07/22 12:45:27;;;;;;;21.40;18.83;;;24.60;90.90;;;;;;3585148;39;20461;-63
2021/07/22 12:47:56;;;;;;;21.70;20.00;;;24.60;90.80;;;;;;3590721;39;20458;-63
2021/07/22 12:50:33;;;;;;;19.87;18.37;;;24.60;90.80;;;;;;3593870;39;20467;-63
2021/07/22 12:53:03;;;;;;;21.40;19.80;;;24.60;90.80;;;;;;3594708;39;20842;-63
2021/07/22 12:55:33;;;;;;;19.70;18.27;;;24.60;90.80;;;;;;3587969;39;20886;-63